Time;durP1;ratioP1;P1;durP2;ratioP2;P2;SDS_P1;SDS_P2;PMS_P1;PMS_P2;Temp;Humidity;BMP_temperature;BMP_pressure;BME280_temperature;BME280_humidity;BME280_pressure;Samples;Min_cycle;Max_cycle;Signal;HPM_P1;HPM_P2
2023/07/16 00:01:49;;;;;;;3.38;1.95;;;;;;;;;;5100535;28;20052;-60
2023/07/16 00:04:16;;;;;;;3.20;1.65;;;;;;;;;;5095246;28;20052;-60
2023/07/16 00:06:42;;;;;;;3.17;1.92;;;;;;;;;;5092475;28;20059;-60
2023/07/16 00:09:09;;;;;;;2.95;1.90;;;;;;;;;;5101581;28;20047;-61
2023/07/16 00:11:36;;;;;;;4.35;1.80;;;;;;;;;;5115770;28;20047;-61
2023/07/16 00:14:03;;;;;;;2.35;1.50;;;;;;;;;;5100327;28;20059;-60
2023/07/16 00:16:30;;;;;;;3.63;1.50;;;;;;;;;;5102309;28;20052;-60
2023/07/16 00:18:58;;;;;;;3.70;1.83;;;;;;;;;;5095000;28;20055;-61
2023/07/16 00:21:28;;;;;;;3.72;1.75;;;;;;;;;;5093590;28;20409;-60
2023/07/16 00:23:55;;;;;;;3.38;1.48;;;;;;;;;;5094715;28;20382;-60
2023/07/16 00:26:22;;;;;;;2.88;1.67;;;;;;;;;;5094136;28;20044;-60
2023/07/16 00:28:49;;;;;;;4.07;1.90;;;;;;;;;;5098029;28;20408;-60
2023/07/16 00:31:18;;;;;;;4.07;1.88;;;;;;;;;;5104904;28;20048;-60
2023/07/16 00:33:44;;;;;;;3.50;1.70;;;;;;;;;;5095195;28;20056;-60
2023/07/16 00:36:15;;;;;;;4.47;1.60;;;;;;;;;;5093687;28;20063;-60
2023/07/16 00:38:45;;;;;;;4.90;2.00;;;;;;;;;;5094659;28;20056;-60
2023/07/16 00:41:11;;;;;;;3.20;1.75;;;;;;;;;;5092180;28;20048;-60
2023/07/16 00:43:42;;;;;;;4.28;1.58;;;;;;;;;;5097215;28;20055;-60
2023/07/16 00:46:11;;;;;;;3.83;1.70;;;;;;;;;;5104063;28;20048;-60
2023/07/16 00:48:37;;;;;;;3.13;1.50;;;;;;;;;;5094627;28;20055;-60
2023/07/16 00:51:05;;;;;;;2.92;1.70;;;;;;;;;;5093278;28;20048;-60
2023/07/16 00:53:33;;;;;;;5.38;1.90;;;;;;;;;;5093507;28;20416;-60
2023/07/16 00:56:00;;;;;;;3.40;1.83;;;;;;;;;;5094445;28;20047;-60
2023/07/16 00:58:27;;;;;;;4.65;1.83;;;;;;;;;;5090968;28;20052;-60
2023/07/16 01:00:57;;;;;;;2.63;1.70;;;;;;;;;;5091903;28;20052;-60
2023/07/16 01:03:24;;;;;;;2.88;1.73;;;;;;;;;;5094164;28;20413;-60
2023/07/16 01:05:55;;;;;;;5.35;1.60;;;;;;;;;;5093246;28;20044;-60
2023/07/16 01:08:26;;;;;;;5.25;1.90;;;;;;;;;;5092231;28;20055;-61
2023/07/16 01:10:54;;;;;;;3.42;1.85;;;;;;;;;;5093737;28;20405;-60
2023/07/16 01:13:21;;;;;;;4.57;1.60;;;;;;;;;;5092106;28;20480;-60
2023/07/16 01:15:50;;;;;;;2.28;1.45;;;;;;;;;;5104825;28;20055;-60
2023/07/16 01:18:19;;;;;;;3.33;1.80;;;;;;;;;;5093991;28;20056;-60
2023/07/16 01:20:46;;;;;;;3.75;1.50;;;;;;;;;;5090613;28;20059;-60
2023/07/16 01:23:27;;;;;;;3.42;1.42;;;;;;;;;;5093906;28;20055;-60
2023/07/16 01:26:07;;;;;;;4.10;1.58;;;;;;;;;;5093803;28;20052;-60
2023/07/16 01:28:45;;;;;;;2.83;1.45;;;;;;;;;;5092391;28;20538;-59
2023/07/16 01:31:13;;;;;;;4.45;1.90;;;;;;;;;;5073281;28;20404;-60
2023/07/16 01:33:42;;;;;;;4.10;2.00;;;;;;;;;;5073187;28;20056;-60
2023/07/16 01:36:09;;;;;;;5.50;1.80;;;;;;;;;;5082765;28;20048;-61
2023/07/16 01:38:36;;;;;;;3.22;1.80;;;;;;;;;;5088998;28;20048;-60
2023/07/16 01:41:03;;;;;;;3.80;1.77;;;;;;;;;;5100136;28;20051;-60
2023/07/16 01:43:29;;;;;;;2.72;1.60;;;;;;;;;;5090737;28;20043;-59
2023/07/16 01:45:59;;;;;;;4.20;1.88;;;;;;;;;;5112121;28;20055;-60
2023/07/16 01:48:25;;;;;;;;;;;;;;;;;;5113990;28;20055;-60
2023/07/16 01:50:53;;;;;;;3.80;1.92;;;;;;;;;;5108317;28;19923;-60
2023/07/16 01:53:20;;;;;;;4.07;1.55;;;;;;;;;;5092315;28;20509;-60
2023/07/16 01:55:48;;;;;;;2.95;1.90;;;;;;;;;;5093146;28;20052;-60
2023/07/16 01:58:17;;;;;;;3.65;1.92;;;;;;;;;;5093240;28;20048;-60
2023/07/16 02:00:48;;;;;;;4.05;1.50;;;;;;;;;;5106658;28;20048;-60
2023/07/16 02:03:14;;;;;;;2.28;1.52;;;;;;;;;;5113364;28;20056;-60
2023/07/16 02:05:41;;;;;;;3.03;1.60;;;;;;;;;;5103443;28;20052;-59
2023/07/16 02:08:09;;;;;;;3.22;1.80;;;;;;;;;;5094217;28;20493;-61
2023/07/16 02:10:38;;;;;;;4.32;1.80;;;;;;;;;;5083215;28;20181;-59
2023/07/16 02:13:05;;;;;;;3.33;1.70;;;;;;;;;;5072775;28;20381;-59
2023/07/16 02:15:32;;;;;;;3.70;1.65;;;;;;;;;;5098998;28;20059;-60
2023/07/16 02:17:59;;;;;;;4.30;2.28;;;;;;;;;;5113183;28;20059;-59
2023/07/16 02:20:25;;;;;;;4.55;2.20;;;;;;;;;;5107997;28;20067;-60
2023/07/16 02:22:52;;;;;;;4.10;2.00;;;;;;;;;;5093996;28;20052;-59
2023/07/16 02:25:20;;;;;;;3.20;2.05;;;;;;;;;;5093001;28;20059;-59
2023/07/16 02:27:47;;;;;;;3.33;2.10;;;;;;;;;;5092410;28;20052;-59
2023/07/16 02:30:14;;;;;;;3.95;2.20;;;;;;;;;;5099000;28;20404;-59
2023/07/16 02:32:47;;;;;;;4.20;2.22;;;;;;;;;;5112879;28;20048;-59
2023/07/16 02:35:14;;;;;;;5.03;2.20;;;;;;;;;;5112941;28;20052;-59
2023/07/16 02:37:44;;;;;;;4.20;2.10;;;;;;;;;;5094036;28;20047;-59
2023/07/16 02:40:11;;;;;;;4.25;2.15;;;;;;;;;;5091028;28;20079;-59
2023/07/16 02:42:41;;;;;;;3.65;1.85;;;;;;;;;;5091160;28;20509;-60
2023/07/16 02:45:09;;;;;;;3.95;2.10;;;;;;;;;;5091116;28;20381;-59
2023/07/16 02:47:35;;;;;;;4.32;1.85;;;;;;;;;;5111895;28;20044;-60
2023/07/16 02:50:02;;;;;;;3.42;1.90;;;;;;;;;;5111595;28;20465;-60
2023/07/16 02:52:29;;;;;;;4.72;2.22;;;;;;;;;;5093611;28;20421;-60
2023/07/16 02:54:56;;;;;;;3.67;2.42;;;;;;;;;;5092167;28;20063;-60
2023/07/16 02:57:26;;;;;;;4.75;1.80;;;;;;;;;;5092097;28;20067;-59
2023/07/16 02:59:54;;;;;;;4.65;1.90;;;;;;;;;;5090598;28;20044;-59
2023/07/16 03:02:21;;;;;;;6.07;2.20;;;;;;;;;;5090143;28;20048;-60
2023/07/16 03:04:51;;;;;;;3.53;1.90;;;;;;;;;;5091765;28;20052;-60
2023/07/16 03:07:18;;;;;;;4.85;1.98;;;;;;;;;;5086723;28;20397;-60
2023/07/16 03:09:47;;;;;;;4.03;1.60;;;;;;;;;;5090898;28;20059;-60
2023/07/16 03:12:14;;;;;;;5.22;1.70;;;;;;;;;;5072342;28;20044;-60
2023/07/16 03:14:40;;;;;;;3.63;1.50;;;;;;;;;;5072393;28;20378;-60
2023/07/16 03:17:09;;;;;;;3.70;1.80;;;;;;;;;;5094328;28;20066;-60
2023/07/16 03:19:35;;;;;;;3.97;1.50;;;;;;;;;;5096280;28;20374;-60
2023/07/16 03:22:02;;;;;;;5.65;1.77;;;;;;;;;;5092746;28;20566;-60
2023/07/16 03:24:29;;;;;;;4.60;1.60;;;;;;;;;;5095454;28;20056;-60
2023/07/16 03:26:56;;;;;;;4.40;1.58;;;;;;;;;;5096102;28;20052;-60
2023/07/16 03:29:23;;;;;;;5.55;1.98;;;;;;;;;;5095801;28;20056;-60
2023/07/16 03:31:50;;;;;;;5.70;2.15;;;;;;;;;;5093353;28;20044;-60
2023/07/16 03:34:18;;;;;;;6.07;1.60;;;;;;;;;;5095358;28;20059;-60
2023/07/16 03:36:44;;;;;;;2.58;1.40;;;;;;;;;;5094729;28;20405;-60
2023/07/16 03:39:11;;;;;;;5.20;1.90;;;;;;;;;;5092136;28;20123;-60
2023/07/16 03:41:38;;;;;;;4.45;1.70;;;;;;;;;;5095971;28;20389;-60
2023/07/16 03:44:05;;;;;;;3.25;1.58;;;;;;;;;;5116073;28;20385;-60
2023/07/16 03:46:32;;;;;;;5.85;1.52;;;;;;;;;;5108635;28;20051;-60
2023/07/16 03:48:59;;;;;;;4.82;1.70;;;;;;;;;;5116115;28;20058;-60
2023/07/16 03:51:27;;;;;;;5.35;2.28;;;;;;;;;;5109990;28;20055;-60
2023/07/16 03:53:54;;;;;;;3.28;1.60;;;;;;;;;;5093864;28;20067;-60
2023/07/16 03:56:20;;;;;;;4.60;1.50;;;;;;;;;;5109858;28;20051;-60
2023/07/16 03:58:47;;;;;;;3.85;1.38;;;;;;;;;;5115456;28;20530;-60
2023/07/16 04:01:14;;;;;;;3.40;1.60;;;;;;;;;;5104018;28;20067;-60
2023/07/16 04:03:41;;;;;;;4.70;1.52;;;;;;;;;;5102007;28;20043;-60
2023/07/16 04:06:10;;;;;;;5.28;1.77;;;;;;;;;;5114727;28;20058;-60
2023/07/16 04:08:38;;;;;;;4.57;1.83;;;;;;;;;;5107765;28;20055;-61
2023/07/16 04:11:05;;;;;;;5.87;1.97;;;;;;;;;;5093958;28;20078;-59
2023/07/16 04:13:33;;;;;;;4.50;2.05;;;;;;;;;;5094511;28;20450;-60
2023/07/16 04:15:59;;;;;;;4.70;1.80;;;;;;;;;;5090222;28;20071;-60
2023/07/16 04:18:26;;;;;;;4.30;1.77;;;;;;;;;;5094962;28;20058;-60
2023/07/16 04:20:53;;;;;;;4.13;1.80;;;;;;;;;;5095042;28;20497;-60
2023/07/16 04:23:20;;;;;;;5.63;1.88;;;;;;;;;;5091449;28;20048;-60
2023/07/16 04:25:51;;;;;;;4.35;2.10;;;;;;;;;;5094736;28;20404;-60
2023/07/16 04:28:18;;;;;;;5.00;1.90;;;;;;;;;;5093691;28;20501;-60
2023/07/16 04:30:45;;;;;;;2.85;1.73;;;;;;;;;;5092645;28;20055;-60
2023/07/16 04:33:12;;;;;;;3.63;1.55;;;;;;;;;;5074492;28;20052;-59
2023/07/16 04:35:39;;;;;;;4.72;1.67;;;;;;;;;;5074355;28;20048;-60
2023/07/16 04:38:05;;;;;;;5.22;2.25;;;;;;;;;;5083899;28;20064;-59
2023/07/16 04:40:32;;;;;;;6.63;2.22;;;;;;;;;;5091859;28;20056;-59
2023/07/16 04:43:00;;;;;;;4.47;1.60;;;;;;;;;;5094216;28;20059;-61
2023/07/16 04:45:27;;;;;;;5.03;2.10;;;;;;;;;;5091702;28;20043;-60
2023/07/16 04:47:54;;;;;;;4.95;2.00;;;;;;;;;;5094223;28;20051;-59
2023/07/16 04:50:21;;;;;;;5.72;2.03;;;;;;;;;;5094550;28;20078;-60
2023/07/16 04:52:47;;;;;;;5.70;2.08;;;;;;;;;;5092776;28;20066;-60
2023/07/16 04:55:14;;;;;;;5.05;2.10;;;;;;;;;;5093941;28;20051;-60
2023/07/16 04:57:41;;;;;;;4.82;1.92;;;;;;;;;;5094017;28;20405;-59
2023/07/16 05:00:10;;;;;;;4.95;2.00;;;;;;;;;;5091413;28;20373;-60
2023/07/16 05:02:36;;;;;;;4.80;2.28;;;;;;;;;;5102333;28;20040;-60
2023/07/16 05:05:03;;;;;;;4.10;2.03;;;;;;;;;;5103211;28;20407;-60
2023/07/16 05:07:30;;;;;;;5.28;2.30;;;;;;;;;;5092993;28;20059;-59
2023/07/16 05:09:57;;;;;;;3.40;2.03;;;;;;;;;;5092295;28;20071;-60
2023/07/16 05:12:24;;;;;;;4.43;2.45;;;;;;;;;;5097379;28;20058;-60
2023/07/16 05:14:52;;;;;;;5.40;2.22;;;;;;;;;;5114397;28;20081;-60
2023/07/16 05:17:20;;;;;;;5.25;2.53;;;;;;;;;;5108804;28;20058;-60
2023/07/16 05:19:47;;;;;;;5.00;2.17;;;;;;;;;;5114153;28;20054;-60
2023/07/16 05:22:14;;;;;;;5.25;2.42;;;;;;;;;;5113961;28;20051;-61
2023/07/16 05:24:40;;;;;;;5.32;2.40;;;;;;;;;;5113705;28;20065;-60
2023/07/16 05:27:07;;;;;;;5.80;2.40;;;;;;;;;;5100691;28;20056;-60
2023/07/16 05:29:34;;;;;;;5.18;2.40;;;;;;;;;;5103996;28;20055;-59
2023/07/16 05:32:01;;;;;;;5.68;2.20;;;;;;;;;;5081991;28;20055;-61
2023/07/16 05:34:29;;;;;;;6.53;2.28;;;;;;;;;;5104211;28;20063;-60
2023/07/16 05:36:55;;;;;;;4.00;2.20;;;;;;;;;;5106245;28;20059;-60
2023/07/16 05:39:22;;;;;;;6.80;2.53;;;;;;;;;;5109951;28;20050;-60
2023/07/16 05:41:49;;;;;;;8.35;2.40;;;;;;;;;;5107030;28;20048;-60
2023/07/16 05:44:16;;;;;;;7.57;3.33;;;;;;;;;;5101879;28;20048;-60
2023/07/16 05:46:43;;;;;;;12.23;2.72;;;;;;;;;;5109810;28;20051;-60
2023/07/16 05:49:10;;;;;;;6.45;2.45;;;;;;;;;;5111972;28;20047;-59
2023/07/16 05:51:38;;;;;;;6.28;2.30;;;;;;;;;;5110254;28;20480;-60
2023/07/16 05:54:04;;;;;;;7.43;2.33;;;;;;;;;;5105181;28;20059;-60
2023/07/16 05:56:31;;;;;;;4.80;2.40;;;;;;;;;;5109160;28;20455;-60
2023/07/16 05:58:58;;;;;;;5.95;2.58;;;;;;;;;;5103364;28;20066;-60
2023/07/16 06:01:25;;;;;;;7.47;2.22;;;;;;;;;;5110029;28;20051;-60
2023/07/16 06:03:52;;;;;;;5.68;2.40;;;;;;;;;;5109448;28;20101;-60
2023/07/16 06:06:19;;;;;;;4.70;2.30;;;;;;;;;;5109008;28;20063;-60
2023/07/16 06:08:48;;;;;;;5.07;2.88;;;;;;;;;;5094218;28;20067;-60
2023/07/16 06:11:15;;;;;;;5.93;2.50;;;;;;;;;;5091385;28;20055;-60
2023/07/16 06:13:42;;;;;;;5.82;2.63;;;;;;;;;;5087238;28;20412;-60
2023/07/16 06:16:08;;;;;;;5.60;3.00;;;;;;;;;;5085907;28;20425;-60
2023/07/16 06:18:35;;;;;;;6.57;3.22;;;;;;;;;;5095681;28;20052;-59
2023/07/16 06:21:02;;;;;;;6.80;2.88;;;;;;;;;;5091490;28;20048;-60
2023/07/16 06:23:29;;;;;;;8.20;3.42;;;;;;;;;;5090569;28;20051;-60
2023/07/16 06:25:57;;;;;;;6.63;3.22;;;;;;;;;;5090605;28;20048;-60
2023/07/16 06:28:24;;;;;;;5.00;3.10;;;;;;;;;;5090798;28;20417;-59
2023/07/16 06:30:52;;;;;;;8.45;3.40;;;;;;;;;;5091792;28;20051;-60
2023/07/16 06:33:19;;;;;;;6.03;3.53;;;;;;;;;;5091146;28;20052;-60
2023/07/16 06:35:46;;;;;;;5.38;3.03;;;;;;;;;;5090365;28;20048;-60
2023/07/16 06:38:14;;;;;;;6.63;3.22;;;;;;;;;;5091183;28;20056;-59
2023/07/16 06:40:40;;;;;;;7.85;3.17;;;;;;;;;;5087498;28;20059;-60
2023/07/16 06:43:09;;;;;;;6.22;3.28;;;;;;;;;;5090796;28;20059;-59
2023/07/16 06:45:35;;;;;;;7.25;3.63;;;;;;;;;;5089276;28;20394;-59
2023/07/16 06:48:02;;;;;;;8.50;3.97;;;;;;;;;;5082956;28;20063;-60
2023/07/16 06:50:29;;;;;;;6.88;3.50;;;;;;;;;;5084782;28;20052;-60
2023/07/16 06:52:56;;;;;;;8.95;3.75;;;;;;;;;;5094252;28;20048;-60
2023/07/16 06:55:22;;;;;;;6.85;3.47;;;;;;;;;;5095679;28;20570;-60
2023/07/16 06:57:49;;;;;;;6.45;3.78;;;;;;;;;;5095647;28;20074;-60
2023/07/16 07:00:18;;;;;;;6.40;3.25;;;;;;;;;;5097266;28;20052;-60
2023/07/16 07:02:45;;;;;;;9.68;4.18;;;;;;;;;;5102156;28;20063;-60
2023/07/16 07:05:11;;;;;;;5.75;3.65;;;;;;;;;;5094484;28;20071;-60
2023/07/16 07:07:38;;;;;;;7.25;3.70;;;;;;;;;;5087675;28;20048;-60
2023/07/16 07:10:05;;;;;;;3.75;2.83;;;;;;;;;;5094271;28;20499;-61
2023/07/16 07:12:37;;;;;;;7.18;3.35;;;;;;;;;;5091051;28;20060;-61
2023/07/16 07:15:04;;;;;;;7.35;3.55;;;;;;;;;;5106475;28;20058;-61
2023/07/16 07:17:32;;;;;;;5.53;3.72;;;;;;;;;;5094839;28;20052;-61
2023/07/16 07:19:59;;;;;;;6.55;3.05;;;;;;;;;;5095196;28;20400;-61
2023/07/16 07:22:25;;;;;;;5.82;3.65;;;;;;;;;;5094219;28;20056;-61
2023/07/16 07:24:52;;;;;;;7.95;4.07;;;;;;;;;;5092982;28;20044;-61
2023/07/16 07:27:19;;;;;;;5.00;3.20;;;;;;;;;;5094312;28;20059;-61
2023/07/16 07:29:51;;;;;;;6.05;3.20;;;;;;;;;;5094272;28;20056;-60
2023/07/16 07:32:18;;;;;;;5.40;3.42;;;;;;;;;;5093246;28;20056;-60
2023/07/16 07:34:46;;;;;;;5.57;3.17;;;;;;;;;;5094259;28;20047;-62
2023/07/16 07:37:14;;;;;;;7.22;3.50;;;;;;;;;;5094406;28;20071;-62
2023/07/16 07:39:40;;;;;;;4.90;3.22;;;;;;;;;;5092574;28;20055;-63
2023/07/16 07:42:07;;;;;;;5.32;3.33;;;;;;;;;;5089218;28;20052;-62
2023/07/16 07:44:34;;;;;;;5.40;3.70;;;;;;;;;;5103556;28;20040;-62
2023/07/16 07:47:01;;;;;;;7.45;3.28;;;;;;;;;;5090784;28;20059;-62
2023/07/16 07:49:28;;;;;;;8.30;3.75;;;;;;;;;;5093771;28;20505;-62
2023/07/16 07:51:56;;;;;;;5.88;3.75;;;;;;;;;;5100130;28;20404;-62
2023/07/16 07:54:22;;;;;;;4.72;3.35;;;;;;;;;;5085818;28;20443;-62
2023/07/16 07:56:49;;;;;;;7.20;4.15;;;;;;;;;;5094317;28;20052;-62
2023/07/16 07:59:16;;;;;;;4.15;3.38;;;;;;;;;;5096512;28;20059;-62
2023/07/16 08:01:43;;;;;;;6.72;3.75;;;;;;;;;;5091485;28;20481;-62
2023/07/16 08:04:10;;;;;;;5.55;3.60;;;;;;;;;;5093315;28;20047;-62
2023/07/16 08:06:36;;;;;;;5.22;3.30;;;;;;;;;;5099021;28;20055;-62
2023/07/16 08:09:05;;;;;;;6.05;3.35;;;;;;;;;;5091941;28;20056;-62
2023/07/16 08:11:32;;;;;;;5.20;3.38;;;;;;;;;;5094235;28;20059;-62
2023/07/16 08:13:59;;;;;;;4.78;2.70;;;;;;;;;;5095048;28;20047;-62
2023/07/16 08:16:26;;;;;;;5.18;2.92;;;;;;;;;;5095937;28;20469;-62
2023/07/16 08:18:52;;;;;;;4.75;3.15;;;;;;;;;;5102353;28;20481;-62
2023/07/16 08:21:20;;;;;;;6.43;3.13;;;;;;;;;;5092681;28;20405;-63
2023/07/16 08:23:47;;;;;;;4.75;3.30;;;;;;;;;;5092566;28;20052;-63
2023/07/16 08:26:15;;;;;;;4.85;3.17;;;;;;;;;;5093242;28;20048;-62
2023/07/16 08:28:42;;;;;;;8.70;3.00;;;;;;;;;;5089902;28;20071;-63
2023/07/16 08:31:10;;;;;;;4.75;2.80;;;;;;;;;;5094790;28;20405;-62
2023/07/16 08:33:37;;;;;;;5.77;3.20;;;;;;;;;;5091812;28;20484;-63
2023/07/16 08:36:04;;;;;;;5.45;3.22;;;;;;;;;;5093526;28;20052;-63
2023/07/16 08:38:30;;;;;;;5.28;3.15;;;;;;;;;;5098594;28;20048;-63
2023/07/16 08:40:57;;;;;;;4.50;2.80;;;;;;;;;;5091298;28;20067;-62
2023/07/16 08:43:25;;;;;;;4.18;2.63;;;;;;;;;;5091915;28;20067;-61
2023/07/16 08:45:52;;;;;;;6.25;2.97;;;;;;;;;;5093016;28;20040;-61
2023/07/16 08:48:19;;;;;;;5.15;3.00;;;;;;;;;;5092646;28;20052;-62
2023/07/16 08:50:47;;;;;;;7.25;3.42;;;;;;;;;;5094059;28;20056;-62
2023/07/16 08:53:15;;;;;;;4.25;2.50;;;;;;;;;;5097210;28;20055;-63
2023/07/16 08:55:43;;;;;;;4.55;3.03;;;;;;;;;;5093313;28;20351;-63
2023/07/16 08:58:09;;;;;;;6.25;2.83;;;;;;;;;;5090460;28;20079;-62
2023/07/16 09:00:38;;;;;;;4.22;2.80;;;;;;;;;;5092130;28;20048;-62
2023/07/16 09:03:05;;;;;;;6.78;2.83;;;;;;;;;;5093459;28;20050;-63
2023/07/16 09:05:33;;;;;;;6.47;3.22;;;;;;;;;;5093976;28;20512;-62
2023/07/16 09:08:00;;;;;;;9.38;3.03;;;;;;;;;;5090978;28;20063;-63
2023/07/16 09:10:27;;;;;;;4.35;2.80;;;;;;;;;;5090694;28;20040;-63
2023/07/16 09:12:54;;;;;;;6.88;2.83;;;;;;;;;;5090776;28;20048;-62
2023/07/16 09:15:23;;;;;;;4.07;2.72;;;;;;;;;;5091455;28;20059;-62
2023/07/16 09:17:51;;;;;;;6.03;2.90;;;;;;;;;;5092973;28;20051;-62
2023/07/16 09:20:18;;;;;;;4.70;3.10;;;;;;;;;;5098900;28;20408;-62
2023/07/16 09:22:45;;;;;;;5.63;3.00;;;;;;;;;;5091891;28;20055;-62
2023/07/16 09:25:12;;;;;;;5.80;3.45;;;;;;;;;;5091191;28;20056;-62
2023/07/16 09:27:39;;;;;;;5.20;3.03;;;;;;;;;;5090966;28;20048;-62
2023/07/16 09:30:07;;;;;;;4.60;3.00;;;;;;;;;;5092262;28;20063;-61
2023/07/16 09:32:34;;;;;;;4.95;2.50;;;;;;;;;;5092145;28;20052;-62
2023/07/16 09:35:07;;;;;;;5.10;3.13;;;;;;;;;;5091732;28;20044;-62
2023/07/16 09:37:36;;;;;;;4.97;3.40;;;;;;;;;;5092645;28;20059;-61
2023/07/16 09:40:06;;;;;;;4.47;2.88;;;;;;;;;;5086102;28;20056;-61
2023/07/16 09:42:34;;;;;;;4.70;3.33;;;;;;;;;;5092059;28;20051;-62
2023/07/16 09:45:02;;;;;;;4.50;3.00;;;;;;;;;;5102872;28;20070;-62
2023/07/16 09:47:29;;;;;;;7.60;3.10;;;;;;;;;;5089857;28;20062;-62
2023/07/16 09:49:56;;;;;;;6.45;3.10;;;;;;;;;;5090477;28;20052;-61
2023/07/16 09:52:24;;;;;;;4.65;3.15;;;;;;;;;;5112865;28;20500;-62
2023/07/16 09:54:51;;;;;;;;;;;;;;;;;;5096783;28;20059;-62
2023/07/16 09:57:18;;;;;;;5.97;3.20;;;;;;;;;;5093245;28;19920;-61
2023/07/16 09:59:46;;;;;;;6.47;3.20;;;;;;;;;;5106121;28;20058;-62
2023/07/16 10:02:13;;;;;;;4.20;2.65;;;;;;;;;;5104271;28;20079;-61
2023/07/16 10:04:40;;;;;;;4.88;2.97;;;;;;;;;;5104524;28;20408;-62
2023/07/16 10:07:10;;;;;;;4.10;2.83;;;;;;;;;;5112600;28;20051;-63
2023/07/16 10:09:41;;;;;;;4.55;2.92;;;;;;;;;;5106955;28;20062;-62
2023/07/16 10:12:19;;;;;;;4.03;2.85;;;;;;;;;;5105570;28;20070;-62
2023/07/16 10:14:46;;;;;;;4.33;2.87;;;;;;;;;;5105878;28;20047;-61
2023/07/16 10:17:15;;;;;;;4.38;3.20;;;;;;;;;;5109405;28;20499;-61
2023/07/16 10:19:52;;;;;;;5.63;3.33;;;;;;;;;;5087299;28;20067;-62
2023/07/16 10:22:31;;;;;;;5.47;3.27;;;;;;;;;;5092738;28;20056;-62
2023/07/16 10:25:03;;;;;;;5.45;2.97;;;;;;;;;;5092379;28;20051;-62
2023/07/16 10:27:32;;;;;;;4.32;3.30;;;;;;;;;;5101717;28;20051;-62
2023/07/16 10:30:07;;;;;;;5.20;2.90;;;;;;;;;;5106802;28;20404;-61
2023/07/16 10:32:35;;;;;;;3.65;2.90;;;;;;;;;;5114391;28;20065;-61
2023/07/16 10:35:02;;;;;;;4.13;3.38;;;;;;;;;;5110055;28;20369;-61
2023/07/16 10:37:29;;;;;;;3.33;2.85;;;;;;;;;;5111942;28;20055;-60
2023/07/16 10:39:58;;;;;;;4.35;2.75;;;;;;;;;;5112529;28;20051;-61
2023/07/16 10:42:32;;;;;;;4.18;2.90;;;;;;;;;;5112893;28;20055;-60
2023/07/16 10:44:59;;;;;;;4.68;2.83;;;;;;;;;;5108074;28;20059;-62
2023/07/16 10:47:30;;;;;;;4.45;2.88;;;;;;;;;;5112443;28;20048;-63
2023/07/16 10:49:56;;;;;;;4.30;2.78;;;;;;;;;;5113447;28;20055;-60
2023/07/16 10:52:24;;;;;;;4.13;2.90;;;;;;;;;;5111854;28;20054;-60
2023/07/16 10:54:54;;;;;;;6.55;2.97;;;;;;;;;;5110838;28;20051;-60
2023/07/16 10:57:21;;;;;;;3.63;2.53;;;;;;;;;;5104265;28;20079;-61
2023/07/16 10:59:49;;;;;;;5.30;2.80;;;;;;;;;;5107721;28;20052;-61
2023/07/16 11:02:17;;;;;;;3.60;2.15;;;;;;;;;;5072477;28;20053;-61
2023/07/16 11:04:47;;;;;;;5.95;2.53;;;;;;;;;;5071995;28;20049;-62
2023/07/16 11:07:19;;;;;;;3.65;2.70;;;;;;;;;;5072773;28;20444;-63
2023/07/16 11:09:47;;;;;;;4.47;2.92;;;;;;;;;;5096517;28;20058;-63
2023/07/16 11:12:16;;;;;;;4.85;2.90;;;;;;;;;;5112690;28;20407;-62
2023/07/16 11:14:45;;;;;;;5.25;2.53;;;;;;;;;;5104045;28;20055;-63
2023/07/16 11:17:13;;;;;;;3.45;2.63;;;;;;;;;;5109707;28;20408;-63
2023/07/16 11:19:46;;;;;;;4.50;2.33;;;;;;;;;;5112504;28;20424;-63
2023/07/16 11:22:17;;;;;;;4.63;2.22;;;;;;;;;;5108155;28;20047;-60
2023/07/16 11:24:45;;;;;;;5.22;2.30;;;;;;;;;;5112195;28;20496;-60
2023/07/16 11:27:14;;;;;;;4.63;2.63;;;;;;;;;;5112409;28;20074;-60
2023/07/16 11:29:45;;;;;;;3.63;2.20;;;;;;;;;;5105416;28;20059;-60
2023/07/16 11:32:16;;;;;;;3.95;2.35;;;;;;;;;;5110923;28;20058;-62
2023/07/16 11:34:55;;;;;;;3.03;2.15;;;;;;;;;;5112601;28;20048;-60
2023/07/16 11:37:22;;;;;;;3.53;2.13;;;;;;;;;;5116514;28;20063;-60
2023/07/16 11:39:49;;;;;;;4.50;2.50;;;;;;;;;;5119332;28;20055;-61
2023/07/16 11:42:21;;;;;;;3.13;2.08;;;;;;;;;;5116160;28;20059;-61
2023/07/16 11:44:54;;;;;;;3.35;2.00;;;;;;;;;;5106562;28;20424;-60
2023/07/16 11:47:26;;;;;;;4.45;2.25;;;;;;;;;;5115718;28;20052;-60
2023/07/16 11:49:55;;;;;;;4.93;2.08;;;;;;;;;;5114633;28;20060;-61
2023/07/16 11:52:22;;;;;;;;;;;;;;;;;;5115929;28;20058;-60
2023/07/16 11:54:49;;;;;;;3.47;2.00;;;;;;;;;;5074839;28;20381;-61
2023/07/16 11:57:16;;;;;;;2.85;1.90;;;;;;;;;;5077138;28;20055;-61
2023/07/16 11:59:45;;;;;;;4.15;2.40;;;;;;;;;;5093910;28;20055;-61
2023/07/16 12:02:12;;;;;;;3.17;2.08;;;;;;;;;;5114081;28;20062;-60
2023/07/16 12:04:40;;;;;;;3.28;2.50;;;;;;;;;;5115039;28;20394;-60
2023/07/16 12:07:10;;;;;;;3.92;2.45;;;;;;;;;;5115004;28;20052;-60
2023/07/16 12:09:39;;;;;;;3.63;2.08;;;;;;;;;;5115714;28;20056;-63
2023/07/16 12:12:07;;;;;;;3.80;2.15;;;;;;;;;;5105073;28;20059;-63
2023/07/16 12:14:33;;;;;;;3.65;2.25;;;;;;;;;;5108153;28;20416;-63
2023/07/16 12:17:00;;;;;;;4.45;2.47;;;;;;;;;;5116104;28;20047;-63
2023/07/16 12:19:30;;;;;;;5.00;2.38;;;;;;;;;;5115511;28;20059;-63
2023/07/16 12:22:00;;;;;;;4.40;2.50;;;;;;;;;;5115368;28;20062;-60
2023/07/16 12:24:27;;;;;;;4.38;2.30;;;;;;;;;;5110525;28;20073;-63
2023/07/16 12:26:54;;;;;;;3.33;2.40;;;;;;;;;;5114748;28;20047;-62
2023/07/16 12:29:24;;;;;;;3.45;2.53;;;;;;;;;;5108329;28;20051;-60
2023/07/16 12:31:51;;;;;;;3.30;2.40;;;;;;;;;;5115389;28;20047;-59
2023/07/16 12:34:18;;;;;;;4.65;2.55;;;;;;;;;;5114939;28;20060;-60
2023/07/16 12:36:45;;;;;;;3.63;2.40;;;;;;;;;;5115465;28;20044;-59
2023/07/16 12:39:13;;;;;;;4.72;2.55;;;;;;;;;;5109252;28;20063;-60
2023/07/16 12:41:40;;;;;;;4.32;2.83;;;;;;;;;;5081719;28;20055;-60
2023/07/16 12:44:06;;;;;;;3.20;2.20;;;;;;;;;;5090049;28;20493;-63
2023/07/16 12:46:33;;;;;;;4.55;2.58;;;;;;;;;;5092166;28;20048;-62
2023/07/16 12:49:00;;;;;;;4.10;2.58;;;;;;;;;;5089484;28;20066;-62
2023/07/16 12:51:30;;;;;;;2.90;2.30;;;;;;;;;;5103103;28;20052;-61
2023/07/16 12:53:57;;;;;;;4.20;2.70;;;;;;;;;;5092256;28;20048;-63
2023/07/16 12:56:25;;;;;;;3.95;2.58;;;;;;;;;;5092372;28;20052;-63
2023/07/16 12:58:52;;;;;;;4.68;2.38;;;;;;;;;;5096567;28;20043;-63
2023/07/16 13:01:18;;;;;;;4.25;2.67;;;;;;;;;;5091353;28;20063;-62
2023/07/16 13:03:45;;;;;;;4.93;2.20;;;;;;;;;;5091567;28;20043;-63
2023/07/16 13:06:12;;;;;;;3.05;2.13;;;;;;;;;;5090598;28;20060;-62
2023/07/16 13:08:39;;;;;;;4.53;2.67;;;;;;;;;;5090480;28;20070;-59
2023/07/16 13:11:07;;;;;;;4.05;3.00;;;;;;;;;;5092022;28;20048;-62
2023/07/16 13:13:36;;;;;;;3.83;2.63;;;;;;;;;;5092517;28;20060;-63
2023/07/16 13:16:03;;;;;;;4.75;2.78;;;;;;;;;;5083834;28;20059;-62
2023/07/16 13:18:29;;;;;;;4.55;2.58;;;;;;;;;;5091533;28;20052;-63
2023/07/16 13:20:57;;;;;;;4.72;2.72;;;;;;;;;;5089830;28;20059;-63
2023/07/16 13:23:24;;;;;;;3.08;2.25;;;;;;;;;;5090638;28;20063;-64
2023/07/16 13:25:52;;;;;;;3.20;2.50;;;;;;;;;;5088883;28;20052;-62
2023/07/16 13:28:20;;;;;;;3.88;2.50;;;;;;;;;;5089503;28;20412;-63
2023/07/16 13:30:48;;;;;;;4.18;2.75;;;;;;;;;;5090468;28;20059;-63
2023/07/16 13:33:15;;;;;;;4.53;2.75;;;;;;;;;;5091519;28;20489;-62
2023/07/16 13:35:42;;;;;;;5.72;2.53;;;;;;;;;;5096161;28;20051;-62
2023/07/16 13:38:08;;;;;;;3.95;2.80;;;;;;;;;;5086893;28;20733;-63
2023/07/16 13:40:35;;;;;;;5.32;2.55;;;;;;;;;;5093116;28;20055;-63
2023/07/16 13:43:02;;;;;;;4.97;2.90;;;;;;;;;;5089664;28;20067;-63
2023/07/16 13:48:40;;;;;;;3.72;2.10;;;;;;;;;;5083326;28;20051;-63
2023/07/16 13:51:08;;;;;;;;;;;;;;;;;;5093351;28;20480;-66
2023/07/16 13:53:35;;;;;;;3.75;2.30;;;;;;;;;;5093414;28;19946;-64
2023/07/16 13:56:01;;;;;;;4.47;2.50;;;;;;;;;;5095542;28;20048;-64
2023/07/16 13:58:28;;;;;;;4.63;2.90;;;;;;;;;;5096755;28;20063;-61
2023/07/16 14:00:55;;;;;;;4.22;2.78;;;;;;;;;;5084230;28;20052;-61
2023/07/16 14:03:23;;;;;;;3.78;2.75;;;;;;;;;;5074574;28;20059;-61
2023/07/16 14:09:06;;;;;;;5.35;2.97;;;;;;;;;;5050393;28;20059;-61
2023/07/16 14:11:33;;;;;;;5.53;2.72;;;;;;;;;;5072450;28;20052;-61
2023/07/16 14:14:00;;;;;;;4.97;2.67;;;;;;;;;;5087875;28;20416;-62
2023/07/16 14:16:26;;;;;;;6.47;2.80;;;;;;;;;;5090097;28;20052;-62
2023/07/16 14:18:53;;;;;;;5.05;2.63;;;;;;;;;;5102192;28;20055;-61
2023/07/16 14:21:21;;;;;;;4.65;2.88;;;;;;;;;;5088728;28;20492;-61
2023/07/16 14:23:48;;;;;;;5.00;3.03;;;;;;;;;;5094600;28;20044;-59
2023/07/16 14:26:16;;;;;;;4.25;2.85;;;;;;;;;;5091183;28;20055;-62
2023/07/16 14:28:43;;;;;;;5.07;3.28;;;;;;;;;;5097609;28;20074;-61
2023/07/16 14:31:10;;;;;;;4.47;2.78;;;;;;;;;;5090563;28;20060;-60
2023/07/16 14:33:37;;;;;;;5.07;3.30;;;;;;;;;;5092924;28;20056;-60
2023/07/16 14:36:04;;;;;;;6.75;3.28;;;;;;;;;;5092900;28;20416;-61
2023/07/16 14:38:31;;;;;;;4.95;2.90;;;;;;;;;;5092373;28;20055;-61
2023/07/16 14:40:58;;;;;;;4.80;2.55;;;;;;;;;;5087724;28;20080;-61
2023/07/16 14:43:26;;;;;;;4.57;2.83;;;;;;;;;;5089662;28;20043;-61
2023/07/16 14:45:53;;;;;;;4.20;2.40;;;;;;;;;;5098008;28;20059;-65
2023/07/16 14:48:22;;;;;;;4.70;2.53;;;;;;;;;;5091552;28;20052;-65
2023/07/16 14:50:49;;;;;;;6.20;2.90;;;;;;;;;;5091805;28;20055;-65
2023/07/16 14:56:15;;;;;;;5.40;2.97;;;;;;;;;;5073328;28;20496;-62